Accueil
METAR-TAF:

METAR-TAF

Aéroports :

Şırnak, Turquie

latitude: 37-21-50N, longitude: 42-03-36E, altitude: 621 m

Observation

Le bulletin a été fait il y a 3 heures et 41 minutes, à 13:50 UTC
Vent 4 kt de ouest
Température 12°C
Humidité 50%
Pression 1016 hPa
Visibilité 10 km ou plus
Quelques nuages à une hauteur de 4000 ft
Nuages fragmentés à une hauteur de 18000 ft

METAR: LTCV 051350Z 26004KT 9999 FEW040 BKN180 12/02 Q1016

Heure: 20:31 (17:31 UTC)

Prévision

Le bulletin a été fait il y a 6 heures et 51 minutes, à 10:40 UTC
Prévision valable du 05 à 12 UTC au 06 à 12 UTC
Vent 7 kt de nord/nord-ouest
Visibilité 10 km ou plus
Quelques nuages à une hauteur de 4000 ft
Nuages épars à une hauteur de 10000 ft
Evoluant progressivement
du 05 à 16 UTC au 05 à 19 UTC
Visibilité 10 km ou plus
pas de nuages en-dessous de 1500 mètres et pas de cumulonimbus.

TAF: LTCV 051040Z 0512/0612 33007KT 9999 FEW040 SCT100 BECMG 0516/0519 CAVOK

Observations et prévisions météorologiques de plus de 4000 aéroports (messages METAR et TAF).

Les stations disponibles sont représentées par des disques jaunes et rouges sur la carte.

Passer la souris dessus pour voir le nom de la station.

Cliquer dessus pour voir les observations et prévisions météorologiques.

Pour changer de carte: cliquez sur les boutons verts avec une croix noire pour zoomer, sur le bouton vert avec un tiret pour effectuer un zoom arrière, ou sur les flèches vertes pour les cartes adjacentes.


METAR-TAF: